Time;durP1;ratioP1;P1;durP2;ratioP2;P2;SDS_P1;SDS_P2;PMS_P1;PMS_P2;Temp;Humidity;BMP_temperature;BMP_pressure;BME280_temperature;BME280_humidity;BME280_pressure;Samples;Min_cycle;Max_cycle;Signal;HPM_P1;HPM_P2
2022/11/01 00:01:54;;;;;;;21.20;11.43;;;12.80;99.90;;;;;;5048572;28;20048;-70
2022/11/01 00:04:20;;;;;;;22.07;11.27;;;12.90;99.90;;;;;;5016200;28;20287;-70
2022/11/01 00:06:47;;;;;;;21.70;11.20;;;12.90;99.90;;;;;;5046211;28;20793;-70
2022/11/01 00:09:13;;;;;;;22.90;11.03;;;12.90;99.90;;;;;;5030112;28;20357;-70
2022/11/01 00:11:38;;;;;;;16.23;9.83;;;13.00;99.90;;;;;;5030437;28;20365;-70
2022/11/01 00:14:05;;;;;;;19.90;11.07;;;13.10;99.90;;;;;;5016026;28;20286;-71
2022/11/01 00:16:31;;;;;;;18.67;9.97;;;13.10;99.90;;;;;;5014091;28;20044;-70
2022/11/01 00:18:56;;;;;;;20.57;11.50;;;13.20;99.90;;;;;;5029590;28;20321;-70
2022/11/01 00:21:22;;;;;;;25.13;11.67;;;13.20;99.90;;;;;;5029843;28;20674;-70
2022/11/01 00:23:48;;;;;;;20.10;11.67;;;13.20;99.90;;;;;;5045537;28;20581;-70
2022/11/01 00:26:20;;;;;;;18.63;10.63;;;13.20;99.90;;;;;;5047026;28;20043;-70
2022/11/01 00:28:46;;;;;;;21.73;10.57;;;13.20;99.90;;;;;;5046276;28;20036;-70
2022/11/01 00:31:12;;;;;;;19.17;10.87;;;13.20;99.90;;;;;;5046615;28;20666;-70
2022/11/01 00:33:39;;;;;;;22.30;10.90;;;13.10;99.90;;;;;;5045207;28;20287;-70
2022/11/01 00:36:05;;;;;;;21.13;10.37;;;13.10;99.90;;;;;;5047740;28;20475;-70
2022/11/01 00:38:31;;;;;;;18.60;10.10;;;13.10;99.90;;;;;;5033490;28;20821;-70
2022/11/01 00:40:57;;;;;;;22.00;9.70;;;13.20;99.90;;;;;;5050819;28;20294;-70
2022/11/01 00:43:23;;;;;;;17.97;9.47;;;13.20;99.90;;;;;;5048725;28;20127;-70
2022/11/01 00:45:49;;;;;;;20.67;9.40;;;13.20;99.90;;;;;;5033637;28;20385;-70
2022/11/01 00:48:15;;;;;;;17.63;9.83;;;13.20;99.90;;;;;;5032764;28;20048;-70
2022/11/01 00:50:41;;;;;;;17.40;10.27;;;13.30;99.90;;;;;;5050639;28;20840;-70
2022/11/01 00:53:09;;;;;;;20.47;10.03;;;13.30;99.90;;;;;;5032160;28;20118;-70
2022/11/01 00:55:35;;;;;;;20.03;8.87;;;13.40;99.90;;;;;;5033243;28;20044;-71
2022/11/01 00:58:01;;;;;;;18.47;8.50;;;13.40;99.90;;;;;;5032854;28;20289;-70
2022/11/01 01:00:27;;;;;;;16.20;9.00;;;13.40;99.90;;;;;;5032787;28;20080;-70
2022/11/01 01:02:53;;;;;;;20.80;8.80;;;13.50;99.90;;;;;;5038931;28;20041;-70
2022/11/01 01:05:18;;;;;;;15.40;8.63;;;13.50;99.90;;;;;;5037631;28;20035;-70
2022/11/01 01:07:44;;;;;;;18.90;8.63;;;13.50;99.90;;;;;;5041737;28;20049;-70
2022/11/01 01:10:10;;;;;;;18.77;8.70;;;13.60;99.90;;;;;;5050213;28;20032;-70
2022/11/01 01:12:36;;;;;;;15.87;8.20;;;13.60;99.90;;;;;;5028910;28;20051;-70
2022/11/01 01:15:02;;;;;;;18.17;8.63;;;13.60;99.90;;;;;;5024018;28;20121;-71
2022/11/01 01:17:27;;;;;;;17.63;9.00;;;13.60;99.90;;;;;;5048394;28;20037;-71
2022/11/01 01:19:53;;;;;;;14.97;8.37;;;13.60;99.90;;;;;;5029708;28;20057;-71
2022/11/01 01:22:19;;;;;;;15.27;8.40;;;13.60;99.90;;;;;;5016049;28;20051;-71
2022/11/01 01:24:46;;;;;;;17.70;8.93;;;13.60;99.90;;;;;;5029264;28;20041;-71
2022/11/01 01:27:16;;;;;;;16.37;8.37;;;13.50;99.90;;;;;;5013684;28;20124;-71
2022/11/01 01:29:43;;;;;;;15.03;8.00;;;13.50;99.90;;;;;;5043341;28;20604;-70
2022/11/01 01:32:13;;;;;;;20.13;8.67;;;13.50;99.90;;;;;;5027057;28;20325;-70
2022/11/01 01:34:39;;;;;;;16.33;8.33;;;13.50;99.90;;;;;;5027685;28;20816;-70
2022/11/01 01:37:06;;;;;;;15.50;8.83;;;13.50;99.90;;;;;;5045646;28;20702;-70
2022/11/01 01:39:32;;;;;;;14.13;8.20;;;13.40;99.90;;;;;;5028597;28;20389;-71
2022/11/01 01:41:58;;;;;;;13.80;8.73;;;13.50;99.90;;;;;;5012427;28;20632;-71
2022/11/01 01:44:43;;;;;;;14.90;8.50;;;13.40;99.90;;;;;;5029160;28;20128;-71
2022/11/01 01:47:12;;;;;;;16.37;7.90;;;13.50;99.90;;;;;;5033559;28;20330;-71
2022/11/01 01:49:38;;;;;;;17.50;7.97;;;13.50;99.90;;;;;;5028344;28;20280;-71
2022/11/01 01:52:05;;;;;;;18.83;8.23;;;13.50;99.90;;;;;;5029484;28;20822;-71
2022/11/01 01:54:31;;;;;;;17.67;8.70;;;13.50;99.90;;;;;;5012642;28;20685;-71
2022/11/01 01:56:58;;;;;;;16.97;8.20;;;13.50;99.90;;;;;;5045625;28;20295;-71
2022/11/01 01:59:24;;;;;;;12.97;7.20;;;13.50;99.90;;;;;;5045030;28;20778;-71
2022/11/01 02:01:50;;;;;;;14.40;7.37;;;13.50;99.90;;;;;;5030171;28;20303;-70
2022/11/01 02:04:51;;;;;;;14.23;7.30;;;13.50;99.90;;;;;;5014305;28;20345;-70
2022/11/01 02:07:17;;;;;;;15.50;8.20;;;13.60;99.90;;;;;;5018061;28;20773;-70
2022/11/01 02:09:43;;;;;;;18.90;7.60;;;13.60;99.90;;;;;;5027645;28;20314;-70
2022/11/01 02:12:13;;;;;;;13.80;7.07;;;13.60;99.90;;;;;;5027436;28;20568;-70
2022/11/01 02:14:41;;;;;;;12.83;6.83;;;13.70;99.90;;;;;;5032517;28;20353;-71
2022/11/01 02:17:24;;;;;;;17.73;7.30;;;13.70;99.90;;;;;;5041827;28;20388;-71
2022/11/01 02:19:59;;;;;;;15.33;7.70;;;13.70;99.90;;;;;;5027780;28;20732;-71
2022/11/01 02:22:33;;;;;;;16.95;7.47;;;13.70;99.90;;;;;;5044156;28;20818;-71
2022/11/01 02:25:09;;;;;;;15.93;7.83;;;13.70;99.90;;;;;;5043868;28;20040;-71
2022/11/01 02:27:53;;;;;;;14.13;6.77;;;13.70;99.90;;;;;;5032597;28;20319;-71
2022/11/01 02:30:20;;;;;;;16.53;7.20;;;13.70;99.90;;;;;;5028148;28;20283;-71
2022/11/01 02:32:52;;;;;;;14.30;7.40;;;13.70;99.90;;;;;;5027008;28;20802;-71
2022/11/01 02:35:43;;;;;;;15.40;7.40;;;13.70;99.90;;;;;;5044153;28;20705;-71
2022/11/01 02:38:21;;;;;;;16.97;7.90;;;13.70;99.90;;;;;;5027870;28;20326;-71
2022/11/01 02:41:02;;;;;;;12.93;7.00;;;13.80;99.90;;;;;;5028194;28;20594;-71
2022/11/01 02:43:45;;;;;;;12.53;6.90;;;13.80;99.90;;;;;;5043094;28;20444;-71
2022/11/01 02:48:56;;;;;;;13.13;7.10;;;13.80;99.90;;;;;;5032327;28;20284;-71
2022/11/01 02:51:24;;;;;;;16.10;6.80;;;13.80;99.90;;;;;;5044304;28;20290;-71
2022/11/01 02:53:50;;;;;;;13.73;7.20;;;13.80;99.90;;;;;;5043215;28;20287;-69
2022/11/01 02:56:17;;;;;;;15.70;7.20;;;13.80;99.90;;;;;;5010783;28;20361;-69
2022/11/01 02:58:46;;;;;;;12.97;6.97;;;13.80;99.90;;;;;;5043815;28;20045;-71
2022/11/01 03:01:17;;;;;;;10.77;7.20;;;13.80;99.90;;;;;;5043752;28;20287;-70
2022/11/01 03:03:47;;;;;;;12.70;6.40;;;13.80;99.90;;;;;;5049356;28;20366;-70
2022/11/01 03:06:42;;;;;;;14.80;6.90;;;13.80;99.90;;;;;;5044156;28;20751;-70
2022/11/01 03:09:11;;;;;;;14.55;6.65;;;13.80;99.90;;;;;;5039040;28;20783;-70
2022/11/01 03:11:47;;;;;;;8.80;6.30;;;13.90;99.90;;;;;;5010637;28;20049;-70
2022/11/01 03:14:18;;;;;;;12.77;6.33;;;13.90;99.90;;;;;;5027573;28;20287;-70
2022/11/01 03:17:16;;;;;;;16.80;6.73;;;14.00;99.90;;;;;;5043024;28;20292;-70
2022/11/01 03:19:49;;;;;;;13.30;6.50;;;14.00;99.90;;;;;;5034075;28;20314;-70
2022/11/01 03:22:20;;;;;;;11.10;6.97;;;14.00;99.90;;;;;;5042893;28;20311;-70
2022/11/01 03:25:04;;;;;;;10.23;6.10;;;14.00;99.90;;;;;;5042690;28;20405;-70
2022/11/01 03:27:43;;;;;;;12.10;6.27;;;14.00;99.90;;;;;;5042083;28;20290;-70
2022/11/01 03:30:12;;;;;;;15.13;6.60;;;14.00;99.90;;;;;;5043297;28;20782;-70
2022/11/01 03:32:48;;;;;;;13.43;6.03;;;13.90;99.90;;;;;;5043119;28;20290;-70
2022/11/01 03:35:29;;;;;;;11.10;5.77;;;13.90;99.90;;;;;;5043886;28;20304;-70
2022/11/01 03:38:03;;;;;;;11.13;5.60;;;13.90;99.90;;;;;;5025928;28;20283;-70
2022/11/01 03:40:30;;;;;;;12.80;6.10;;;13.80;99.90;;;;;;5027773;28;20965;-70
2022/11/01 03:43:01;;;;;;;12.03;5.70;;;13.90;99.90;;;;;;5041678;28;20655;-70
2022/11/01 03:45:29;;;;;;;18.03;6.30;;;13.90;99.90;;;;;;5025145;28;20279;-70
2022/11/01 03:47:55;;;;;;;10.27;5.93;;;13.90;99.90;;;;;;5043275;28;20316;-70
2022/11/01 03:50:24;;;;;;;14.37;6.07;;;14.00;99.90;;;;;;5043390;28;20848;-70
2022/11/01 03:52:50;;;;;;;12.60;6.03;;;14.00;99.90;;;;;;5042093;28;20045;-70
2022/11/01 03:55:17;;;;;;;14.00;5.93;;;14.10;99.90;;;;;;5027489;28;20698;-70
2022/11/01 03:57:48;;;;;;;11.67;5.90;;;14.10;99.90;;;;;;5043636;28;20095;-70
2022/11/01 04:00:18;;;;;;;12.00;5.80;;;14.20;99.90;;;;;;5017369;28;20275;-70
2022/11/01 04:02:44;;;;;;;10.60;5.87;;;14.20;99.90;;;;;;5040977;28;20398;-70
2022/11/01 04:05:10;;;;;;;10.63;5.80;;;14.30;99.90;;;;;;5042104;28;20366;-70
2022/11/01 04:07:37;;;;;;;13.40;5.73;;;14.30;99.90;;;;;;5025735;28;20078;-70
2022/11/01 04:10:03;;;;;;;9.07;5.33;;;14.30;99.90;;;;;;5026094;28;20275;-70
2022/11/01 04:12:29;;;;;;;13.73;6.30;;;14.40;99.90;;;;;;5039477;28;20298;-70
2022/11/01 04:20:33;;;;;;;13.20;5.97;;;14.40;99.90;;;;;;5042273;28;20307;-70
2022/11/01 04:23:04;;;;;;;14.13;5.70;;;14.40;99.90;;;;;;5042462;28;20311;-70
2022/11/01 04:25:31;;;;;;;13.93;5.60;;;14.50;99.90;;;;;;5025544;28;20547;-70
2022/11/01 04:27:57;;;;;;;11.47;5.23;;;14.50;99.90;;;;;;5026517;28;20331;-70
2022/11/01 04:30:28;;;;;;;13.67;5.60;;;14.50;99.90;;;;;;5010014;28;20287;-70
2022/11/01 04:32:54;;;;;;;10.40;5.17;;;14.50;99.90;;;;;;5043057;28;20288;-70
2022/11/01 04:35:21;;;;;;;8.73;4.90;;;14.50;99.90;;;;;;5042433;28;20778;-70
2022/11/01 04:37:47;;;;;;;10.50;5.03;;;14.50;99.90;;;;;;5025474;28;20299;-70
2022/11/01 04:40:14;;;;;;;12.43;5.13;;;14.40;99.90;;;;;;5025191;28;20374;-70
2022/11/01 04:42:40;;;;;;;7.90;4.60;;;14.50;99.90;;;;;;5009553;28;20055;-70
2022/11/01 04:45:07;;;;;;;10.30;3.80;;;14.50;99.90;;;;;;5025983;28;20287;-70
2022/11/01 04:47:33;;;;;;;6.17;2.87;;;14.50;99.90;;;;;;5042995;28;20341;-70
2022/11/01 04:50:00;;;;;;;7.47;2.30;;;14.50;99.90;;;;;;5026159;28;20792;-70
2022/11/01 04:52:26;;;;;;;4.40;1.53;;;14.50;99.90;;;;;;5042041;28;20383;-70
2022/11/01 04:54:52;;;;;;;7.13;1.20;;;14.50;99.90;;;;;;5042388;28;20417;-71
2022/11/01 04:57:23;;;;;;;5.03;1.37;;;14.50;99.90;;;;;;5042580;28;20602;-71
2022/11/01 04:59:53;;;;;;;6.07;1.00;;;14.50;99.90;;;;;;5026088;28;20538;-70
2022/11/01 05:02:20;;;;;;;4.63;1.30;;;14.40;99.90;;;;;;5042289;28;20418;-70
2022/11/01 05:04:46;;;;;;;3.30;0.60;;;14.30;99.90;;;;;;5024605;28;20339;-70
2022/11/01 05:07:13;;;;;;;1.63;0.70;;;14.30;99.90;;;;;;5024830;28;20758;-70
2022/11/01 05:09:40;;;;;;;4.13;0.90;;;14.20;99.90;;;;;;5042003;28;20052;-70
2022/11/01 05:12:06;;;;;;;7.10;1.03;;;14.20;99.90;;;;;;5042097;28;20290;-70
2022/11/01 05:14:32;;;;;;;3.23;0.60;;;14.10;99.90;;;;;;5042633;28;20343;-70
2022/11/01 05:16:58;;;;;;;4.57;0.80;;;14.00;99.90;;;;;;5025347;28;20762;-70
2022/11/01 05:19:24;;;;;;;2.10;0.70;;;13.90;99.90;;;;;;5027447;28;20092;-70
2022/11/01 05:21:50;;;;;;;2.73;0.53;;;13.80;99.90;;;;;;5045250;28;20397;-70
2022/11/01 05:24:16;;;;;;;1.90;0.60;;;13.70;99.90;;;;;;5032208;28;20040;-70
2022/11/01 05:26:42;;;;;;;4.00;0.70;;;13.70;99.90;;;;;;5049349;28;20286;-70
2022/11/01 05:29:09;;;;;;;4.27;0.80;;;13.60;99.90;;;;;;5047948;28;20285;-70
2022/11/01 05:31:35;;;;;;;4.20;0.70;;;13.60;99.90;;;;;;5032060;28;20293;-70
2022/11/01 05:34:01;;;;;;;5.70;0.83;;;13.50;99.90;;;;;;5031895;28;20286;-70
2022/11/01 05:36:27;;;;;;;5.17;0.70;;;13.50;99.90;;;;;;5049457;28;20287;-70
2022/11/01 05:38:57;;;;;;;7.30;0.93;;;13.50;99.90;;;;;;5031325;28;20286;-70
2022/11/01 05:41:23;;;;;;;4.33;0.43;;;13.50;99.90;;;;;;5032168;28;20582;-70
2022/11/01 05:43:48;;;;;;;3.10;0.77;;;13.50;99.90;;;;;;5029952;28;20306;-70
2022/11/01 05:46:14;;;;;;;5.57;0.83;;;13.40;99.90;;;;;;5044978;28;20045;-70
2022/11/01 05:48:41;;;;;;;4.00;0.87;;;13.40;99.90;;;;;;5043071;28;20041;-70
2022/11/01 05:51:08;;;;;;;6.63;1.37;;;13.40;99.90;;;;;;5050975;28;20418;-70
2022/11/01 05:53:34;;;;;;;6.53;0.53;;;13.30;99.90;;;;;;5048434;28;20341;-70
2022/11/01 05:55:59;;;;;;;7.43;0.60;;;13.30;99.90;;;;;;5031993;28;20344;-70
2022/11/01 05:58:26;;;;;;;4.13;0.90;;;13.30;99.90;;;;;;5031303;28;20283;-70
2022/11/01 06:01:05;;;;;;;5.53;0.60;;;13.30;99.90;;;;;;5052749;28;20036;-70
2022/11/01 06:03:31;;;;;;;6.63;0.80;;;13.20;99.90;;;;;;5038235;28;20320;-70
2022/11/01 06:05:58;;;;;;;6.97;0.70;;;13.20;99.90;;;;;;5047825;28;20295;-70
2022/11/01 06:08:24;;;;;;;7.20;1.03;;;13.20;99.90;;;;;;5047774;28;20301;-70
2022/11/01 06:10:50;;;;;;;6.23;0.63;;;13.20;99.90;;;;;;5016674;28;20319;-70
2022/11/01 06:13:16;;;;;;;6.43;0.83;;;13.10;99.90;;;;;;5022138;28;20287;-70
2022/11/01 06:15:42;;;;;;;7.20;0.90;;;13.10;99.90;;;;;;5048216;28;20307;-70
2022/11/01 06:18:08;;;;;;;7.13;0.80;;;13.00;99.90;;;;;;5055732;28;20278;-70
2022/11/01 06:20:37;;;;;;;7.50;0.77;;;13.00;99.90;;;;;;5038623;28;20312;-70
2022/11/01 06:23:10;;;;;;;7.03;1.37;;;13.00;99.90;;;;;;5030759;28;20052;-70
2022/11/01 06:25:36;;;;;;;9.30;0.97;;;13.00;99.90;;;;;;5031977;28;20367;-70
2022/11/01 06:28:02;;;;;;;12.63;1.07;;;13.00;99.90;;;;;;5032030;28;20615;-70
2022/11/01 06:30:27;;;;;;;9.90;1.83;;;13.00;99.90;;;;;;5047350;28;20044;-70
2022/11/01 06:33:00;;;;;;;8.00;0.87;;;13.00;99.90;;;;;;5029741;28;20667;-70
2022/11/01 06:35:29;;;;;;;9.20;1.23;;;13.00;99.90;;;;;;5015028;28;20045;-70
2022/11/01 06:38:05;;;;;;;10.23;1.33;;;13.10;98.70;;;;;;5055322;28;20291;-70
2022/11/01 06:40:35;;;;;;;10.03;0.87;;;13.10;98.10;;;;;;5037310;28;20297;-70
2022/11/01 06:43:03;;;;;;;7.60;1.00;;;13.10;98.30;;;;;;5029214;28;20310;-70
2022/11/01 06:45:32;;;;;;;12.17;1.40;;;13.10;98.30;;;;;;5030781;28;20286;-70
2022/11/01 06:47:58;;;;;;;9.47;1.30;;;13.10;97.80;;;;;;5047040;28;20363;-70
2022/11/01 06:50:24;;;;;;;12.67;1.10;;;13.10;97.30;;;;;;5030273;28;20275;-70
2022/11/01 06:52:50;;;;;;;11.23;1.73;;;13.10;97.50;;;;;;5045976;28;20294;-70
2022/11/01 06:55:16;;;;;;;10.30;1.37;;;13.10;97.10;;;;;;5014367;28;20282;-70
2022/11/01 06:57:42;;;;;;;10.13;0.90;;;13.10;96.90;;;;;;5029994;28;20393;-70
2022/11/01 07:00:10;;;;;;;8.60;1.67;;;13.10;96.60;;;;;;5030961;28;20071;-70
2022/11/01 07:02:36;;;;;;;12.23;1.07;;;13.10;96.60;;;;;;5019084;28;20503;-70
2022/11/01 07:05:01;;;;;;;10.23;1.20;;;13.10;96.00;;;;;;5030369;28;20767;-70
2022/11/01 07:07:27;;;;;;;9.87;1.97;;;13.20;93.30;;;;;;5031238;28;20471;-70
2022/11/01 07:09:53;;;;;;;9.77;1.00;;;13.20;93.70;;;;;;5048219;28;20054;-70
2022/11/01 07:12:19;;;;;;;6.93;1.33;;;13.20;93.00;;;;;;5012969;28;20040;-70
2022/11/01 07:14:44;;;;;;;11.40;1.40;;;13.20;92.70;;;;;;5019299;28;20044;-70
2022/11/01 07:17:10;;;;;;;11.93;1.30;;;13.20;91.60;;;;;;4994987;28;20516;-70
2022/11/01 07:19:36;;;;;;;9.93;1.30;;;13.20;91.70;;;;;;5045494;28;20052;-70
2022/11/01 07:22:01;;;;;;;14.33;1.77;;;13.30;91.90;;;;;;5028568;28;20570;-69
2022/11/01 07:24:27;;;;;;;14.43;2.00;;;13.30;92.20;;;;;;5031144;28;20053;-69
2022/11/01 07:26:53;;;;;;;8.63;1.37;;;13.30;90.80;;;;;;5030678;28;20055;-69
2022/11/01 07:29:19;;;;;;;12.60;1.67;;;13.30;90.80;;;;;;5046518;28;20032;-69
2022/11/01 07:31:46;;;;;;;11.97;1.87;;;13.40;91.00;;;;;;5046589;28;20079;-69
2022/11/01 07:34:12;;;;;;;12.30;2.00;;;13.40;90.90;;;;;;5045480;28;20306;-69
2022/11/01 07:36:38;;;;;;;12.03;1.90;;;13.50;90.30;;;;;;5030500;28;20286;-69
2022/11/01 07:39:04;;;;;;;11.40;1.60;;;13.50;89.90;;;;;;5046141;28;20446;-69
2022/11/01 07:41:30;;;;;;;13.97;2.20;;;13.50;90.20;;;;;;5046856;28;20290;-69
2022/11/01 07:43:56;;;;;;;10.80;1.57;;;13.50;89.70;;;;;;5030587;28;21039;-69
2022/11/01 07:46:22;;;;;;;14.03;2.23;;;13.60;90.10;;;;;;5030499;28;20040;-70
2022/11/01 07:48:49;;;;;;;17.07;2.77;;;13.60;89.90;;;;;;5046924;28;20107;-69
2022/11/01 07:51:16;;;;;;;16.00;2.30;;;13.60;89.00;;;;;;5018078;28;20551;-70
2022/11/01 07:53:41;;;;;;;15.37;1.80;;;13.60;88.90;;;;;;5005467;28;20375;-70
2022/11/01 07:56:07;;;;;;;15.80;2.37;;;13.60;88.80;;;;;;5025523;28;20374;-70
2022/11/01 07:58:33;;;;;;;10.87;1.57;;;13.70;88.10;;;;;;5030327;28;20132;-70
2022/11/01 08:00:59;;;;;;;11.23;1.83;;;13.70;88.00;;;;;;5046050;28;20051;-70
2022/11/01 08:03:25;;;;;;;17.30;2.20;;;13.70;87.00;;;;;;5047588;28;20048;-71
2022/11/01 08:05:51;;;;;;;22.67;2.67;;;13.70;86.90;;;;;;5046802;28;20301;-70
2022/11/01 08:08:18;;;;;;;15.47;2.40;;;13.70;86.40;;;;;;5030563;28;20085;-71
2022/11/01 08:10:44;;;;;;;13.60;2.73;;;13.60;86.40;;;;;;5047402;28;20283;-71
2022/11/01 08:13:17;;;;;;;20.23;2.43;;;13.60;86.80;;;;;;5021132;28;20297;-71
2022/11/01 08:15:43;;;;;;;15.67;2.07;;;13.70;87.40;;;;;;5042156;28;20782;-71
2022/11/01 08:18:09;;;;;;;11.07;2.27;;;13.70;87.20;;;;;;5046713;28;20291;-71
2022/11/01 08:20:35;;;;;;;15.97;2.07;;;13.70;87.30;;;;;;5029100;28;20325;-71
2022/11/01 08:23:01;;;;;;;16.37;2.47;;;13.70;87.90;;;;;;5047483;28;20056;-71
2022/11/01 08:25:27;;;;;;;13.20;2.77;;;13.70;88.30;;;;;;5030081;28;20071;-72
2022/11/01 08:27:53;;;;;;;17.20;2.50;;;13.70;88.20;;;;;;5030815;28;20307;-71
2022/11/01 08:30:19;;;;;;;13.47;2.50;;;13.80;88.10;;;;;;5046828;28;20132;-70
2022/11/01 08:32:45;;;;;;;18.17;2.27;;;13.80;88.30;;;;;;5046588;28;20442;-71
2022/11/01 08:35:11;;;;;;;15.93;2.10;;;13.80;87.90;;;;;;5028337;28;20279;-70
2022/11/01 08:37:46;;;;;;;14.00;2.10;;;13.70;88.60;;;;;;5048472;28;20127;-70
2022/11/01 08:40:12;;;;;;;13.57;2.47;;;13.70;88.70;;;;;;5045345;28;20311;-71
2022/11/01 08:42:37;;;;;;;16.30;2.33;;;13.70;89.40;;;;;;5029504;28;20099;-70
2022/11/01 08:45:05;;;;;;;16.67;1.73;;;13.70;89.60;;;;;;5028831;28;20447;-71
2022/11/01 08:47:30;;;;;;;17.10;2.37;;;13.70;90.00;;;;;;5046845;28;20045;-71
2022/11/01 08:49:56;;;;;;;12.70;2.03;;;13.90;88.70;;;;;;5042368;28;20844;-71
2022/11/01 08:52:22;;;;;;;19.20;2.93;;;13.90;89.30;;;;;;5021777;28;20311;-71
2022/11/01 08:54:48;;;;;;;17.87;2.30;;;14.00;88.00;;;;;;5042379;28;20463;-71
2022/11/01 08:57:14;;;;;;;20.67;2.60;;;14.10;88.00;;;;;;5031179;28;20307;-71
2022/11/01 08:59:40;;;;;;;17.10;2.80;;;14.20;88.40;;;;;;5032460;28;20052;-71
2022/11/01 09:02:10;;;;;;;13.97;2.67;;;14.20;88.40;;;;;;5053259;28;20306;-70
2022/11/01 09:04:35;;;;;;;12.20;2.20;;;14.20;88.80;;;;;;5050693;28;20052;-71
2022/11/01 09:07:01;;;;;;;13.70;2.67;;;14.20;88.40;;;;;;5033817;28;20274;-71
2022/11/01 09:09:28;;;;;;;12.73;2.10;;;14.20;89.40;;;;;;5049539;28;20204;-70
2022/11/01 09:11:54;;;;;;;15.27;1.87;;;14.20;88.90;;;;;;5033219;28;20048;-71
2022/11/01 09:14:22;;;;;;;21.20;2.60;;;14.20;89.20;;;;;;5027014;28;20332;-71
2022/11/01 09:16:48;;;;;;;14.80;2.37;;;14.20;89.90;;;;;;5049748;28;20102;-71
2022/11/01 09:19:14;;;;;;;17.87;2.13;;;14.20;89.30;;;;;;5049026;28;20356;-71
2022/11/01 09:21:43;;;;;;;13.77;2.13;;;14.20;90.00;;;;;;5016861;28;20271;-71
2022/11/01 09:24:14;;;;;;;18.83;2.33;;;14.20;90.20;;;;;;5049515;28;20507;-71
2022/11/01 09:26:40;;;;;;;13.37;2.97;;;14.20;91.00;;;;;;5032277;28;20627;-70
2022/11/01 09:29:06;;;;;;;17.17;2.73;;;14.20;91.00;;;;;;5049463;28;20328;-70
2022/11/01 09:31:32;;;;;;;20.40;2.67;;;14.20;90.40;;;;;;5032678;28;20781;-70
2022/11/01 09:33:59;;;;;;;12.30;2.17;;;14.20;90.40;;;;;;5030903;28;20491;-70
2022/11/01 09:36:28;;;;;;;11.53;1.80;;;14.30;91.10;;;;;;5045199;28;20336;-70
2022/11/01 09:38:55;;;;;;;14.53;2.17;;;14.50;90.00;;;;;;5042889;28;20285;-70
2022/11/01 09:41:41;;;;;;;12.50;1.93;;;14.50;90.20;;;;;;5045453;28;20278;-70
2022/11/01 09:44:11;;;;;;;;;;;14.60;90.10;;;;;;5047159;28;20318;-70
2022/11/01 09:46:48;;;;;;;13.87;2.73;;;14.60;90.00;;;;;;5060932;28;19997;-70
2022/11/01 09:49:22;;;;;;;13.87;2.53;;;14.50;89.60;;;;;;5044783;28;20278;-71
2022/11/01 09:51:48;;;;;;;13.15;2.00;;;14.50;90.00;;;;;;5041144;28;20762;-70
2022/11/01 09:54:16;;;;;;;16.63;2.80;;;14.50;90.50;;;;;;5039502;28;20043;-70
2022/11/01 09:57:04;;;;;;;18.07;2.87;;;14.50;90.30;;;;;;5040776;28;20617;-70
2022/11/01 09:59:39;;;;;;;17.13;2.93;;;14.60;90.50;;;;;;5024185;28;20280;-70
2022/11/01 10:02:44;;;;;;;11.85;2.00;;;14.60;90.00;;;;;;5021789;28;20305;-70
2022/11/01 10:05:29;;;;;;;12.87;2.13;;;14.60;90.60;;;;;;5046301;28;20041;-70
2022/11/01 10:08:19;;;;;;;17.30;2.38;;;14.60;89.40;;;;;;5044200;28;20432;-70
2022/11/01 10:11:06;;;;;;;13.87;2.10;;;14.60;89.40;;;;;;5027501;28;20037;-70
2022/11/01 10:13:42;;;;;;;15.87;2.63;;;14.60;90.20;;;;;;5054411;28;20286;-70
2022/11/01 10:16:30;;;;;;;23.90;2.70;;;14.60;89.70;;;;;;5045570;28;20286;-70
2022/11/01 10:19:16;;;;;;;16.27;2.50;;;14.60;90.00;;;;;;5052326;28;20291;-70
2022/11/01 10:21:49;;;;;;;;;;;14.50;90.10;;;;;;5048777;28;20349;-70
2022/11/01 10:24:21;;;;;;;15.63;2.47;;;14.40;90.00;;;;;;5048074;28;19920;-71
2022/11/01 10:26:52;;;;;;;16.07;1.90;;;14.50;89.60;;;;;;5031568;28;20290;-71
2022/11/01 10:29:32;;;;;;;15.07;1.97;;;14.60;88.80;;;;;;5019069;28;20650;-71
2022/11/01 10:31:59;;;;;;;15.63;2.30;;;14.60;89.00;;;;;;5047190;28;20282;-70
2022/11/01 10:34:27;;;;;;;14.93;2.13;;;14.60;89.10;;;;;;5047015;28;20650;-70
2022/11/01 10:37:04;;;;;;;11.13;1.50;;;14.70;89.40;;;;;;5055382;28;20283;-69
2022/11/01 10:39:41;;;;;;;13.07;1.97;;;14.70;88.90;;;;;;5046447;28;20286;-70
2022/11/01 10:42:15;;;;;;;17.57;2.30;;;14.60;88.60;;;;;;5044849;28;20867;-70
2022/11/01 10:44:55;;;;;;;15.65;1.52;;;14.60;89.20;;;;;;5030774;28;20287;-69
2022/11/01 10:47:23;;;;;;;16.70;1.90;;;14.50;89.60;;;;;;5036527;28;20036;-70
2022/11/01 10:49:58;;;;;;;16.97;2.27;;;14.60;89.90;;;;;;5028897;28;20619;-70
2022/11/01 10:52:31;;;;;;;16.30;2.15;;;14.70;90.00;;;;;;5029226;28;20348;-70
2022/11/01 10:54:59;;;;;;;14.47;2.20;;;14.70;89.40;;;;;;5048448;28;20036;-69
2022/11/01 10:57:40;;;;;;;13.67;1.90;;;14.70;89.20;;;;;;5047255;28;20362;-69
2022/11/01 11:00:13;;;;;;;9.30;2.10;;;14.70;89.60;;;;;;5046302;28;20279;-69
2022/11/01 11:02:44;;;;;;;12.90;2.30;;;14.70;90.00;;;;;;5053026;28;20298;-69
2022/11/01 11:05:14;;;;;;;14.20;1.97;;;14.60;90.30;;;;;;5031258;28;20318;-70
2022/11/01 11:07:41;;;;;;;11.17;1.73;;;14.60;90.80;;;;;;5048750;28;20805;-69
2022/11/01 11:10:23;;;;;;;17.33;2.63;;;14.60;91.30;;;;;;5031527;28;20317;-69
2022/11/01 11:12:52;;;;;;;13.23;2.13;;;14.70;91.50;;;;;;5047595;28;20316;-69
2022/11/01 11:15:47;;;;;;;16.17;2.43;;;14.90;90.70;;;;;;5047888;28;20721;-69
2022/11/01 11:18:31;;;;;;;11.77;2.10;;;14.90;90.70;;;;;;5009596;28;20369;-69
2022/11/01 11:21:00;;;;;;;13.57;2.23;;;15.00;90.40;;;;;;5029638;28;20063;-69
2022/11/01 11:23:35;;;;;;;16.27;2.60;;;15.10;91.20;;;;;;5026587;28;20813;-69
2022/11/01 11:26:07;;;;;;;18.08;2.70;;;15.10;90.50;;;;;;5014089;28;20692;-69
2022/11/01 11:28:41;;;;;;;14.87;2.03;;;15.10;90.70;;;;;;5047011;28;20488;-69
2022/11/01 11:31:32;;;;;;;10.73;2.40;;;15.10;90.20;;;;;;5047195;28;20294;-69
2022/11/01 11:34:26;;;;;;;12.67;2.07;;;15.10;90.40;;;;;;5019309;28;20040;-69
2022/11/01 11:36:53;;;;;;;16.17;2.07;;;15.10;90.30;;;;;;5045766;28;20358;-69
2022/11/01 11:39:28;;;;;;;11.90;2.33;;;15.10;90.60;;;;;;5014183;28;20344;-69
2022/11/01 11:42:06;;;;;;;13.57;2.23;;;15.20;90.00;;;;;;5046758;28;20287;-69
2022/11/01 11:45:16;;;;;;;10.53;1.53;;;15.20;90.10;;;;;;5030729;28;20121;-69
2022/11/01 11:47:42;;;;;;;15.77;2.07;;;15.30;89.00;;;;;;5027025;28;20295;-69
2022/11/01 11:50:20;;;;;;;13.50;1.57;;;15.40;89.10;;;;;;5028912;28;20290;-69
2022/11/01 11:53:01;;;;;;;12.50;1.80;;;15.40;89.40;;;;;;5046359;28;20286;-69
2022/11/01 11:55:27;;;;;;;12.93;1.70;;;15.40;89.40;;;;;;5036377;28;20774;-69
2022/11/01 11:57:54;;;;;;;12.20;1.73;;;15.40;89.50;;;;;;5029457;28;20341;-69
2022/11/01 12:00:23;;;;;;;10.30;1.50;;;15.30;89.90;;;;;;5029411;28;20056;-70
2022/11/01 12:02:49;;;;;;;15.23;1.83;;;15.40;89.90;;;;;;5019976;28;20344;-71
2022/11/01 12:05:18;;;;;;;12.70;1.43;;;15.40;89.90;;;;;;5031454;28;20278;-70
2022/11/01 12:07:47;;;;;;;12.30;2.10;;;15.50;90.00;;;;;;5047854;28;20654;-70
2022/11/01 12:10:39;;;;;;;15.87;2.37;;;15.50;90.60;;;;;;5031072;28;20370;-71
2022/11/01 12:13:23;;;;;;;11.20;1.73;;;15.60;89.90;;;;;;5039197;28;20701;-70
2022/11/01 12:16:15;;;;;;;9.73;2.03;;;15.60;89.50;;;;;;5040595;28;20332;-70
2022/11/01 12:18:53;;;;;;;12.50;1.87;;;15.60;89.80;;;;;;5022636;28;20389;-70
2022/11/01 12:21:28;;;;;;;16.90;1.73;;;15.60;90.20;;;;;;5032021;28;20291;-70
2022/11/01 12:24:03;;;;;;;;;;;15.60;90.60;;;;;;5047306;28;20310;-71
2022/11/01 12:26:33;;;;;;;10.02;1.85;;;15.50;90.40;;;;;;5047420;28;19943;-71
2022/11/01 12:29:16;;;;;;;16.60;1.93;;;15.40;90.70;;;;;;5030253;28;20036;-70
2022/11/01 12:31:43;;;;;;;15.23;1.97;;;15.40;90.80;;;;;;5034121;28;20272;-71
2022/11/01 12:34:23;;;;;;;13.43;1.97;;;15.40;91.40;;;;;;5051178;28;20321;-71
2022/11/01 12:37:01;;;;;;;10.60;1.87;;;15.60;91.20;;;;;;5034382;28;20370;-70
2022/11/01 12:39:26;;;;;;;13.30;1.60;;;15.70;89.70;;;;;;5050765;28;20270;-71
2022/11/01 12:42:03;;;;;;;12.53;2.23;;;15.70;89.70;;;;;;5033462;28;20278;-71
2022/11/01 12:44:31;;;;;;;13.87;1.90;;;15.70;88.30;;;;;;5051187;28;20076;-72
2022/11/01 12:47:15;;;;;;;9.83;1.40;;;15.70;88.90;;;;;;5050560;28;20340;-70
2022/11/01 12:49:46;;;;;;;12.73;1.60;;;15.70;89.40;;;;;;5035148;28;20286;-70
2022/11/01 12:52:31;;;;;;;8.80;1.67;;;15.60;88.70;;;;;;5023323;28;20618;-71
2022/11/01 12:55:07;;;;;;;13.60;1.87;;;15.60;88.90;;;;;;5016092;28;20432;-69
2022/11/01 12:57:33;;;;;;;12.53;1.43;;;15.60;88.60;;;;;;5044034;28;20681;-70
2022/11/01 13:00:00;;;;;;;12.50;1.73;;;15.50;88.10;;;;;;5033786;28;20306;-71
2022/11/01 13:02:29;;;;;;;10.83;1.73;;;15.50;88.00;;;;;;5055711;28;20305;-70